createdAt,value
2023-03-19T00:02:17.070Z,27.17
2023-03-19T00:04:44.396Z,20.15
2023-03-19T00:07:11.509Z,18.08
2023-03-19T00:09:38.264Z,19.83
2023-03-19T00:12:05.495Z,20.45
2023-03-19T00:14:32.256Z,25.90
2023-03-19T00:16:58.889Z,25.10
2023-03-19T00:19:25.972Z,21.15
2023-03-19T00:21:53.093Z,20.65
2023-03-19T00:24:20.821Z,18.05
2023-03-19T00:26:48.077Z,20.92
2023-03-19T00:29:15.012Z,19.58
2023-03-19T00:31:41.925Z,22.58
2023-03-19T00:34:10.003Z,25.20
2023-03-19T00:36:37.573Z,28.55
2023-03-19T00:39:05.094Z,25.27
2023-03-19T00:41:32.501Z,21.05
2023-03-19T00:43:59.591Z,19.98
2023-03-19T00:46:26.631Z,22.38
2023-03-19T00:48:55.793Z,22.55
2023-03-19T00:51:23.912Z,26.42
2023-03-19T00:53:51.730Z,27.58
2023-03-19T00:56:19.211Z,24.30
2023-03-19T00:58:46.415Z,27.63
2023-03-19T01:01:15.867Z,24.45
2023-03-19T01:03:43.140Z,21.90
2023-03-19T01:06:09.845Z,21.73
2023-03-19T01:08:36.796Z,20.77
2023-03-19T01:11:14.415Z,22.80
2023-03-19T01:13:42.521Z,19.65
2023-03-19T01:16:10.082Z,23.30
2023-03-19T01:18:37.167Z,23.50
2023-03-19T01:21:04.176Z,15.60
2023-03-19T01:23:32.015Z,16.27
2023-03-19T01:25:58.768Z,17.58
2023-03-19T01:28:25.536Z,16.20
2023-03-19T01:30:52.548Z,15.75
2023-03-19T01:33:20.786Z,18.10
2023-03-19T01:35:53.798Z,15.93
2023-03-19T01:38:20.508Z,13.95
2023-03-19T01:40:48.755Z,22.83
2023-03-19T01:43:18.744Z,18.58
2023-03-19T01:45:48.060Z,18.40
2023-03-19T01:48:34.300Z,16.05
2023-03-19T01:51:01.668Z,19.02
2023-03-19T01:53:33.191Z,14.30
2023-03-19T01:56:04.265Z,17.33
2023-03-19T01:58:31.460Z,14.73
2023-03-19T02:00:58.609Z,20.67
2023-03-19T02:03:27.072Z,20.00
2023-03-19T02:05:56.555Z,18.25
2023-03-19T02:08:24.904Z,22.85
2023-03-19T02:10:56.096Z,19.02
2023-03-19T02:13:23.756Z,15.45
2023-03-19T02:15:51.943Z,22.00
2023-03-19T02:18:19.129Z,19.00
2023-03-19T02:20:51.309Z,19.10
2023-03-19T02:23:27.686Z,19.23
2023-03-19T02:26:04.462Z,25.17
2023-03-19T02:28:33.667Z,17.83
2023-03-19T02:31:00.722Z,21.75
2023-03-19T02:33:27.892Z,20.80
2023-03-19T02:35:56.813Z,18.00
2023-03-19T02:38:25.930Z,23.55
2023-03-19T02:41:04.795Z,16.65
2023-03-19T02:43:34.446Z,21.13
2023-03-19T02:48:29.152Z,19.77
2023-03-19T02:50:56.308Z,17.40
2023-03-19T02:53:23.584Z,17.70
2023-03-19T02:55:50.816Z,20.52
2023-03-19T02:58:17.890Z,31.52
2023-03-19T03:00:45.528Z,20.23
2023-03-19T03:03:12.804Z,20.73
2023-03-19T03:05:39.533Z,20.10
2023-03-19T03:08:06.308Z,20.55
2023-03-19T03:10:34.078Z,19.42
2023-03-19T03:13:01.852Z,26.30
2023-03-19T03:15:28.720Z,17.42
2023-03-19T03:17:56.961Z,17.55
2023-03-19T03:20:24.982Z,17.55
2023-03-19T03:22:52.127Z,17.65
2023-03-19T03:25:18.876Z,22.65
2023-03-19T03:27:45.803Z,18.65
2023-03-19T03:30:12.934Z,19.15
2023-03-19T03:32:40.424Z,17.33
2023-03-19T03:35:08.560Z,13.73
2023-03-19T03:37:37.027Z,13.05
2023-03-19T03:40:08.463Z,16.00
2023-03-19T03:42:37.545Z,12.88
2023-03-19T03:45:05.246Z,15.77
2023-03-19T03:47:32.469Z,11.98
2023-03-19T03:49:59.425Z,14.85
2023-03-19T03:52:26.598Z,19.10
2023-03-19T03:54:53.243Z,18.00
2023-03-19T03:57:19.892Z,18.05
2023-03-19T03:59:46.657Z,19.33
2023-03-19T04:02:13.395Z,18.00
2023-03-19T04:04:40.198Z,15.65
2023-03-19T04:07:06.956Z,16.50
2023-03-19T04:09:33.779Z,17.98
2023-03-19T04:12:01.160Z,18.48
2023-03-19T04:14:28.438Z,17.40
2023-03-19T04:16:55.135Z,16.65
2023-03-19T04:19:21.908Z,17.10
2023-03-19T04:21:48.654Z,19.23
2023-03-19T04:24:15.321Z,18.60
2023-03-19T04:26:42.528Z,16.80
2023-03-19T04:29:09.724Z,15.52
2023-03-19T04:31:36.524Z,18.27
2023-03-19T04:36:37.710Z,16.02
2023-03-19T04:39:05.201Z,20.98
2023-03-19T04:41:32.709Z,17.25
2023-03-19T04:43:59.436Z,19.42
2023-03-19T04:46:26.191Z,13.13
2023-03-19T04:48:52.942Z,14.27
2023-03-19T04:51:21.599Z,19.83
2023-03-19T04:53:49.598Z,16.80
2023-03-19T04:56:16.747Z,20.35
2023-03-19T04:58:44.106Z,16.45
2023-03-19T05:01:11.353Z,16.00
2023-03-19T05:03:38.324Z,16.00
2023-03-19T05:06:07.264Z,14.77
2023-03-19T05:08:34.081Z,14.73
2023-03-19T05:11:00.940Z,15.43
2023-03-19T05:13:27.664Z,20.38
2023-03-19T05:15:55.716Z,16.90
2023-03-19T05:18:23.156Z,11.48
2023-03-19T05:20:50.229Z,15.20
2023-03-19T05:23:18.131Z,15.57
2023-03-19T05:25:45.171Z,14.52
2023-03-19T05:28:12.477Z,16.23
2023-03-19T05:30:41.180Z,14.55
2023-03-19T05:33:07.937Z,15.20
2023-03-19T05:35:36.104Z,15.88
2023-03-19T05:40:29.369Z,18.10
2023-03-19T05:42:56.038Z,23.65
2023-03-19T05:45:22.704Z,21.42
2023-03-19T05:47:50.324Z,18.15
2023-03-19T05:50:18.545Z,18.63
2023-03-19T05:52:45.469Z,17.73
2023-03-19T05:55:12.420Z,18.73
2023-03-19T05:57:42.640Z,17.48
2023-03-19T06:00:10.114Z,17.23
2023-03-19T06:02:37.341Z,18.27
2023-03-19T06:05:05.234Z,20.17
2023-03-19T06:07:32.245Z,20.10
2023-03-19T06:09:59.051Z,17.42
2023-03-19T06:12:25.767Z,18.50
2023-03-19T06:14:52.394Z,17.58
2023-03-19T06:17:23.641Z,15.45
2023-03-19T06:19:50.476Z,19.92
2023-03-19T06:22:18.325Z,19.85
2023-03-19T06:24:44.986Z,15.57
2023-03-19T06:27:11.820Z,12.35
2023-03-19T06:29:38.441Z,18.00
2023-03-19T06:32:05.488Z,11.18
2023-03-19T06:34:32.207Z,14.75
2023-03-19T06:36:58.892Z,14.15
2023-03-19T06:39:26.239Z,12.43
2023-03-19T06:41:53.157Z,11.23
2023-03-19T06:44:20.468Z,10.82
2023-03-19T06:46:47.622Z,9.55
2023-03-19T06:49:14.553Z,12.15
2023-03-19T06:51:41.731Z,10.35
2023-03-19T06:54:08.826Z,10.48
2023-03-19T06:56:36.299Z,13.40
2023-03-19T06:59:04.616Z,12.73
2023-03-19T07:01:31.688Z,11.38
2023-03-19T07:03:58.490Z,14.85
2023-03-19T07:06:25.213Z,9.68
2023-03-19T07:08:51.972Z,12.10
2023-03-19T07:11:19.001Z,9.70
2023-03-19T07:13:48.887Z,11.98
2023-03-19T07:16:15.713Z,13.20
2023-03-19T07:18:42.666Z,10.50
2023-03-19T07:21:09.300Z,13.45
2023-03-19T07:23:36.144Z,13.23
2023-03-19T07:26:04.359Z,9.88
2023-03-19T07:28:31.918Z,13.10
2023-03-19T07:30:58.681Z,11.88
2023-03-19T07:33:28.466Z,8.27
2023-03-19T07:35:55.182Z,7.95
2023-03-19T07:38:21.831Z,12.93
2023-03-19T07:41:01.476Z,10.13
2023-03-19T07:43:28.753Z,10.55
2023-03-19T07:45:55.558Z,9.45
2023-03-19T07:48:22.321Z,10.30
2023-03-19T07:50:51.857Z,11.38
2023-03-19T07:53:19.515Z,12.93
2023-03-19T07:55:47.536Z,8.93
2023-03-19T07:58:14.196Z,8.98
2023-03-19T08:00:41.265Z,13.18
2023-03-19T08:03:08.192Z,14.32
2023-03-19T08:05:34.899Z,20.80
2023-03-19T08:08:01.959Z,12.07
2023-03-19T08:10:28.770Z,11.85
2023-03-19T08:12:55.448Z,11.13
2023-03-19T08:15:23.668Z,10.68
2023-03-19T08:17:57.869Z,10.60
2023-03-19T08:20:24.638Z,10.27
2023-03-19T08:22:51.488Z,11.48
2023-03-19T08:25:19.354Z,11.38
2023-03-19T08:27:46.133Z,10.98
2023-03-19T08:30:13.228Z,11.95
2023-03-19T08:32:40.059Z,10.60
2023-03-19T08:35:08.488Z,14.27
2023-03-19T08:37:35.450Z,12.80
2023-03-19T08:42:29.296Z,9.73
2023-03-19T08:44:56.288Z,8.43
2023-03-19T08:47:24.597Z,7.75
2023-03-19T08:49:52.390Z,10.68
2023-03-19T08:52:20.041Z,8.32
2023-03-19T08:54:46.727Z,8.73
2023-03-19T08:57:13.475Z,8.40
2023-03-19T08:59:40.301Z,10.48
2023-03-19T09:02:10.658Z,7.03
2023-03-19T09:04:39.222Z,9.23
2023-03-19T09:07:06.704Z,8.75
2023-03-19T09:09:33.448Z,11.98
2023-03-19T09:12:00.248Z,10.48
2023-03-19T09:14:31.156Z,8.43
2023-03-19T09:16:57.923Z,9.15
2023-03-19T09:19:24.838Z,10.43
2023-03-19T09:21:51.818Z,7.82
2023-03-19T09:24:21.627Z,8.98
2023-03-19T09:26:49.688Z,6.50
2023-03-19T09:29:16.948Z,9.70
2023-03-19T09:31:45.022Z,8.15
2023-03-19T09:34:11.970Z,10.27
2023-03-19T09:36:38.620Z,7.18
2023-03-19T09:39:09.266Z,7.70
2023-03-19T09:42:05.716Z,6.13
2023-03-19T09:44:41.426Z,7.63
2023-03-19T09:47:20.276Z,5.20
2023-03-19T09:49:51.591Z,4.47
2023-03-19T09:52:47.270Z,8.10
2023-03-19T09:55:35.350Z,4.13
2023-03-19T09:58:04.851Z,7.25
2023-03-19T10:00:37.222Z,7.30
2023-03-19T10:03:31.169Z,5.72
2023-03-19T10:06:04.474Z,5.55
2023-03-19T10:08:35.042Z,7.22
2023-03-19T10:11:03.488Z,7.22
2023-03-19T10:13:44.796Z,3.85
2023-03-19T10:16:20.281Z,3.38
2023-03-19T10:18:51.275Z,7.10
2023-03-19T10:21:37.600Z,3.78
2023-03-19T10:24:21.954Z,4.20
2023-03-19T10:26:56.903Z,4.50
2023-03-19T10:29:24.808Z,3.80
2023-03-19T10:32:00.903Z,3.53
2023-03-19T10:34:38.027Z,4.78
2023-03-19T10:37:14.059Z,6.50
2023-03-19T10:39:44.528Z,5.10
2023-03-19T10:42:42.390Z,3.92
2023-03-19T10:45:30.352Z,4.70
2023-03-19T10:47:58.407Z,5.53
2023-03-19T10:50:38.596Z,4.88
2023-03-19T10:53:28.399Z,6.40
2023-03-19T10:55:56.854Z,4.70
2023-03-19T10:58:28.471Z,4.95
2023-03-19T11:01:03.579Z,5.43
2023-03-19T11:03:35.492Z,3.92
2023-03-19T11:06:04.524Z,3.92
2023-03-19T11:08:36.544Z,7.05
2023-03-19T11:11:04.459Z,5.72
2023-03-19T11:13:36.339Z,5.55
2023-03-19T11:16:04.436Z,5.80
2023-03-19T11:18:37.578Z,4.65
2023-03-19T11:21:22.094Z,5.07
2023-03-19T11:23:58.236Z,4.72
2023-03-19T11:26:31.552Z,3.22
2023-03-19T11:31:37.747Z,3.03
2023-03-19T11:34:28.805Z,3.88
2023-03-19T11:37:04.517Z,4.40
2023-03-19T11:40:05.017Z,3.33
2023-03-19T11:42:43.347Z,4.57
2023-03-19T11:45:33.908Z,5.40
2023-03-19T11:48:04.569Z,3.72
2023-03-19T11:51:04.461Z,5.43
2023-03-19T11:53:38.497Z,4.53
2023-03-19T11:56:23.290Z,4.25
2023-03-19T11:58:59.124Z,5.20
2023-03-19T12:01:49.328Z,3.67
2023-03-19T12:05:00.830Z,6.13
2023-03-19T12:07:40.947Z,6.90
2023-03-19T12:10:28.943Z,3.92
2023-03-19T12:13:04.587Z,5.43
2023-03-19T12:15:34.602Z,5.00
2023-03-19T12:18:08.050Z,5.18
2023-03-19T12:20:46.954Z,6.18
2023-03-19T12:23:39.324Z,4.93
2023-03-19T12:26:16.165Z,2.85
2023-03-19T12:29:05.021Z,3.53
2023-03-19T12:31:41.557Z,6.68
2023-03-19T12:34:30.169Z,2.80
2023-03-19T12:37:04.855Z,6.35
2023-03-19T12:39:37.480Z,5.68
2023-03-19T12:42:07.804Z,3.13
2023-03-19T12:44:43.710Z,3.67
2023-03-19T12:47:22.849Z,5.78
2023-03-19T12:50:00.305Z,4.40
2023-03-19T12:52:41.622Z,3.80
2023-03-19T12:55:23.387Z,4.90
2023-03-19T12:58:04.669Z,5.35
2023-03-19T13:01:01.442Z,5.43
2023-03-19T13:03:37.820Z,3.08
2023-03-19T13:06:08.840Z,4.07
2023-03-19T13:08:51.532Z,4.95
2023-03-19T13:11:34.806Z,6.63
2023-03-19T13:14:04.586Z,2.50
2023-03-19T13:16:59.174Z,5.68
2023-03-19T13:19:41.560Z,6.50
2023-03-19T13:22:14.028Z,5.90
2023-03-19T13:24:44.749Z,2.50
2023-03-19T13:27:22.392Z,4.40
2023-03-19T13:30:01.566Z,3.08
2023-03-19T13:32:43.227Z,3.92
2023-03-19T13:35:39.915Z,4.20
2023-03-19T13:38:24.592Z,3.30
2023-03-19T13:40:57.246Z,3.22
2023-03-19T13:43:43.204Z,3.90
2023-03-19T13:46:12.025Z,4.40
2023-03-19T13:48:45.416Z,3.53
2023-03-19T13:51:21.986Z,3.80
2023-03-19T13:53:56.533Z,3.42
2023-03-19T13:56:30.330Z,8.90
2023-03-19T13:59:03.562Z,4.80
2023-03-19T14:01:30.218Z,3.33
2023-03-19T14:06:39.154Z,6.75
2023-03-19T14:09:28.839Z,5.00
2023-03-19T14:11:56.462Z,4.40
2023-03-19T14:14:25.188Z,5.95
2023-03-19T14:16:57.025Z,4.72
2023-03-19T14:19:24.823Z,4.68
2023-03-19T14:24:55.902Z,5.90
2023-03-19T14:27:33.062Z,3.85
2023-03-19T14:30:04.713Z,3.40
2023-03-19T14:32:41.021Z,2.97
2023-03-19T14:35:13.252Z,5.07
2023-03-19T14:37:52.345Z,4.72
2023-03-19T14:40:51.941Z,4.25
2023-03-19T14:43:35.467Z,3.72
2023-03-19T14:46:04.654Z,3.78
2023-03-19T14:49:04.992Z,4.45
2023-03-19T14:51:43.978Z,5.53
2023-03-19T14:54:55.990Z,3.45
2023-03-19T14:57:28.494Z,7.28
2023-03-19T14:59:56.023Z,4.43
2023-03-19T15:02:49.064Z,6.00
2023-03-19T15:05:33.314Z,5.82
2023-03-19T15:08:04.674Z,6.47
2023-03-19T15:10:42.163Z,4.45
2023-03-19T15:13:27.577Z,3.78
2023-03-19T15:16:03.958Z,6.47
2023-03-19T15:18:38.668Z,5.95
2023-03-19T15:21:06.513Z,5.65
2023-03-19T15:23:33.327Z,7.00
2023-03-19T15:28:44.665Z,5.70
2023-03-19T15:31:31.146Z,4.40
2023-03-19T15:34:00.299Z,6.10
2023-03-19T15:36:34.371Z,5.65
2023-03-19T15:39:07.861Z,4.20
2023-03-19T15:41:40.982Z,4.72
2023-03-19T15:44:15.915Z,3.90
2023-03-19T15:46:45.628Z,4.15
2023-03-19T15:49:31.000Z,5.13
2023-03-19T15:54:32.626Z,5.72
2023-03-19T15:56:59.508Z,5.82
2023-03-19T15:59:33.656Z,3.45
2023-03-19T16:04:30.284Z,3.28
2023-03-19T16:06:59.178Z,4.57
2023-03-19T16:09:34.423Z,5.78
2023-03-19T16:12:01.761Z,3.60
2023-03-19T16:14:40.386Z,3.08
2023-03-19T16:17:16.107Z,5.80
2023-03-19T16:19:56.730Z,4.78
2023-03-19T16:22:25.698Z,6.53
2023-03-19T16:24:53.943Z,7.22
2023-03-19T16:27:32.080Z,6.22
2023-03-19T16:30:00.733Z,6.20
2023-03-19T16:32:29.901Z,6.50
2023-03-19T16:35:04.721Z,7.15
2023-03-19T16:37:34.615Z,5.70
2023-03-19T16:40:04.829Z,5.07
2023-03-19T16:42:34.164Z,8.82
2023-03-19T16:45:04.707Z,6.30
2023-03-19T16:47:31.427Z,13.63
2023-03-19T16:49:58.046Z,10.43
2023-03-19T16:52:25.346Z,9.07
2023-03-19T16:54:52.428Z,6.68
2023-03-19T16:57:19.836Z,9.95
2023-03-19T16:59:47.544Z,5.63
2023-03-19T17:02:16.220Z,11.75
2023-03-19T17:04:43.474Z,7.22
2023-03-19T17:07:11.263Z,12.63
2023-03-19T17:09:39.421Z,8.18
2023-03-19T17:12:08.657Z,7.43
2023-03-19T17:14:35.788Z,8.05
2023-03-19T17:19:36.120Z,9.75
2023-03-19T17:24:32.726Z,7.35
2023-03-19T17:29:30.665Z,7.85
2023-03-19T17:32:02.115Z,9.38
2023-03-19T17:34:33.392Z,15.70
2023-03-19T17:37:07.695Z,11.13
2023-03-19T17:39:34.419Z,11.40
2023-03-19T17:42:01.222Z,19.38
2023-03-19T17:44:28.335Z,10.60
2023-03-19T17:46:56.288Z,8.20
2023-03-19T17:49:32.922Z,10.85
2023-03-19T17:52:00.449Z,11.70
2023-03-19T17:54:28.077Z,15.70
2023-03-19T17:56:55.939Z,20.95
2023-03-19T17:59:24.030Z,16.05
2023-03-19T18:01:52.278Z,15.30
2023-03-19T18:04:21.406Z,21.98
2023-03-19T18:06:56.075Z,16.23
2023-03-19T18:09:32.966Z,18.02
2023-03-19T18:12:00.643Z,18.75
2023-03-19T18:14:27.699Z,27.30
2023-03-19T18:16:55.128Z,19.70
2023-03-19T18:19:35.646Z,20.27
2023-03-19T18:22:04.838Z,19.00
2023-03-19T18:24:31.542Z,20.23
2023-03-19T18:26:58.193Z,23.02
2023-03-19T18:29:24.972Z,22.35
2023-03-19T18:31:52.376Z,23.38
2023-03-19T18:34:19.714Z,23.83
2023-03-19T18:36:46.473Z,26.48
2023-03-19T18:39:15.670Z,30.77
2023-03-19T18:41:42.877Z,25.05
2023-03-19T18:44:10.068Z,27.80
2023-03-19T18:46:39.311Z,25.27
2023-03-19T18:49:21.915Z,22.08
2023-03-19T18:52:01.757Z,24.98
2023-03-19T18:54:31.655Z,19.20
2023-03-19T18:57:00.977Z,37.88
2023-03-19T18:59:33.567Z,25.42
2023-03-19T19:02:03.843Z,26.40
2023-03-19T19:04:31.461Z,27.77
2023-03-19T19:06:58.386Z,26.23
2023-03-19T19:09:25.187Z,31.33
2023-03-19T19:11:54.460Z,28.10
2023-03-19T19:14:24.305Z,30.88
2023-03-19T19:16:53.233Z,33.35
2023-03-19T19:19:23.344Z,31.40
2023-03-19T19:21:51.295Z,26.15
2023-03-19T19:24:21.878Z,20.80
2023-03-19T19:26:54.211Z,19.45
2023-03-19T19:29:28.451Z,21.48
2023-03-19T19:31:55.827Z,29.20
2023-03-19T19:34:23.326Z,26.65
2023-03-19T19:36:51.182Z,21.98
2023-03-19T19:39:19.276Z,27.75
2023-03-19T19:41:48.479Z,20.85
2023-03-19T19:44:23.007Z,18.10
2023-03-19T19:46:54.088Z,15.65
2023-03-19T19:49:21.885Z,15.45
2023-03-19T19:51:48.979Z,15.27
2023-03-19T19:54:16.259Z,13.45
2023-03-19T19:56:46.239Z,22.95
2023-03-19T19:59:15.499Z,18.88
2023-03-19T20:01:42.307Z,15.57
2023-03-19T20:04:14.995Z,20.15
2023-03-19T20:06:42.016Z,15.77
2023-03-19T20:09:12.498Z,17.55
2023-03-19T20:11:39.366Z,14.00
2023-03-19T20:14:06.125Z,15.90
2023-03-19T20:16:33.006Z,18.10
2023-03-19T20:18:59.876Z,19.42
2023-03-19T20:21:26.786Z,18.27
2023-03-19T20:23:55.639Z,13.23
2023-03-19T20:26:25.224Z,17.50
2023-03-19T20:28:52.385Z,17.15
2023-03-19T20:31:29.643Z,14.40
2023-03-19T20:33:57.701Z,13.32
2023-03-19T20:36:24.952Z,15.13
2023-03-19T20:38:52.724Z,16.85
2023-03-19T20:41:22.424Z,17.35
2023-03-19T20:43:50.673Z,17.55
2023-03-19T20:46:20.660Z,24.23
2023-03-19T20:48:48.119Z,40.55
2023-03-19T20:51:21.778Z,31.70
2023-03-19T20:53:49.948Z,32.28
2023-03-19T20:56:18.938Z,30.05
2023-03-19T20:58:46.178Z,32.22
2023-03-19T21:01:15.996Z,27.05
2023-03-19T21:03:42.706Z,33.70
2023-03-19T21:06:17.801Z,28.40
2023-03-19T21:08:48.237Z,29.25
2023-03-19T21:11:22.808Z,30.83
2023-03-19T21:13:52.827Z,29.88
2023-03-19T21:16:25.909Z,36.85
2023-03-19T21:18:54.098Z,38.15
2023-03-19T21:21:31.534Z,36.10
2023-03-19T21:24:05.253Z,29.58
2023-03-19T21:26:37.536Z,30.20
2023-03-19T21:29:08.696Z,27.13
2023-03-19T21:31:35.829Z,31.17
2023-03-19T21:36:29.269Z,30.05
2023-03-19T21:38:56.485Z,29.58
2023-03-19T21:41:28.596Z,29.33
2023-03-19T21:43:57.907Z,29.52
2023-03-19T21:46:27.890Z,29.45
2023-03-19T21:48:56.635Z,32.03
2023-03-19T21:51:25.469Z,30.13
2023-03-19T21:53:53.070Z,28.65
2023-03-19T21:56:33.550Z,32.20
2023-03-19T21:59:05.034Z,26.30
2023-03-19T22:01:32.267Z,21.17
2023-03-19T22:03:58.976Z,22.63
2023-03-19T22:06:25.824Z,17.35
2023-03-19T22:08:54.324Z,15.25
2023-03-19T22:11:26.986Z,20.48
2023-03-19T22:13:55.659Z,18.20
2023-03-19T22:16:24.846Z,15.02
2023-03-19T22:18:52.870Z,15.27
2023-03-19T22:21:22.105Z,16.00
2023-03-19T22:23:52.214Z,16.65
2023-03-19T22:26:39.846Z,15.57
2023-03-19T22:29:13.361Z,15.40
2023-03-19T22:31:41.178Z,11.90
2023-03-19T22:34:14.989Z,12.65
2023-03-19T22:36:41.662Z,13.00
2023-03-19T22:39:09.285Z,13.40
2023-03-19T22:41:37.977Z,11.25
2023-03-19T22:44:08.252Z,14.45
2023-03-19T22:46:36.045Z,12.32
2023-03-19T22:49:05.054Z,16.25
2023-03-19T22:51:32.302Z,19.58
2023-03-19T22:53:58.996Z,16.85
2023-03-19T22:56:29.436Z,20.45
2023-03-19T22:58:56.823Z,14.05
2023-03-19T23:01:24.234Z,21.70
2023-03-19T23:03:51.182Z,17.20
2023-03-19T23:06:29.764Z,20.58
2023-03-19T23:08:57.554Z,25.23
2023-03-19T23:11:24.825Z,21.90
2023-03-19T23:13:51.686Z,26.63
2023-03-19T23:16:23.797Z,26.15
2023-03-19T23:18:52.703Z,19.33
2023-03-19T23:21:20.178Z,25.45
2023-03-19T23:23:47.166Z,22.02
2023-03-19T23:26:29.886Z,29.27
2023-03-19T23:29:02.240Z,20.75
2023-03-19T23:31:29.451Z,27.15
2023-03-19T23:33:56.279Z,21.58
2023-03-19T23:36:22.936Z,22.15
2023-03-19T23:38:49.650Z,21.48
2023-03-19T23:41:25.166Z,22.50
2023-03-19T23:43:56.032Z,28.42
2023-03-19T23:46:26.048Z,26.42
2023-03-19T23:48:52.781Z,18.42
2023-03-19T23:51:19.496Z,20.45
2023-03-19T23:53:46.503Z,17.65
2023-03-19T23:56:13.229Z,14.95
2023-03-19T23:58:45.517Z,14.57
